Caslav, Czech Republic

11:33 PM CET on January 27, 2015 (GMT +0100)
Skvrnov | Change Station
CLOSE
Current Station
Personal Weather Station
Location: Skvrňov, STřEDOčESKý KRAJ
Elevation: 1335 ft
Nearby Weather Stations

Elev 1335 ft 49.90 °N, 15.00 °E | Updated 10 seconds ago

Light Snow Showers
Light Showers Snow
31.5 °F
Feels Like 32 °F
N
0.0
Wind Variable Wind from West
Gusts 0.0 mph

Today
High -- | Low -- °F
--% Chance of Precip.
Yesterday
High -- | Low -- °F
Precip. -- in
7:39 AM 4:43 PM
First Quarter, 58% visible
Pressure 30.04 in
Visibility 3.7 miles
Clouds Few 2200 ft
Mostly Cloudy 3000 ft
Overcast 4500 ft
Windchill 32 °F
Dew Point 31 °F
Humidity 98%
Rainfall 0.15 in
Snow Depth Not available.
UV 0.0 out of 12
Pollen Not available.
Air Quality Not available.
Flu Activity Not available.
METAR LKKB 272206Z 27005KT 6000 -SHSN FEW022 BKN030 OVC045 01/M01 Q1017 RMK WHT

More Conditions Fewer Conditions

Pressure 30.04 in
Visibility 3.7 miles
Clouds Few 2200 ft
Mostly Cloudy 3000 ft
Overcast 4500 ft
Windchill 32 °F
Dew Point 31 °F
Humidity 98%
Rainfall 0.15 in
Snow Depth Not available.
UV 0.0 out of 12
Pollen Not available.
Air Quality Not available.
Flu Activity Not available.
METAR LKKB 272206Z 27005KT 6000 -SHSN FEW022 BKN030 OVC045 01/M01 Q1017 RMK WHT

More Conditions Fewer Conditions

10-Day Weather Forecast

Almanac

Astronomy

Jan. 27, 2015 Rise Set
Actual Time
Civil Twilight
Nautical Twilight
Astronomical Twilight
Moon
Length of Visible Light
Length of Day
Tomorrow will be .
, % of the Moon is Illuminated

Today's Extremes

Country Highs Country Lows

Community

WunderPhotos

Upload Photos

1,790,952 photos uploaded!

WunderBlogs® & News

Nearby

Air Quality

  Air Quality AQ Index Pollutant
Not available.

Snow Depth

Station Depth Elevation

Earthquake Activity

City Distance Mag. Time & Date
Minimum magnitude displayed is 2.5.

Coastal Water Temperatures

Place Temperature

Nearby Weather Stations